sensor_id;sensor_type;location;lat;lon;timestamp;temperature;humidity
10010;DHT22;5044;48.652;9.250;2022-10-17T00:01:15;14.30;99.90
10010;DHT22;5044;48.652;9.250;2022-10-17T00:03:41;14.20;99.90
10010;DHT22;5044;48.652;9.250;2022-10-17T00:06:11;14.10;99.90
10010;DHT22;5044;48.652;9.250;2022-10-17T00:08:39;14.20;99.90
10010;DHT22;5044;48.652;9.250;2022-10-17T00:11:12;14.20;99.90
10010;DHT22;5044;48.652;9.250;2022-10-17T00:13:40;14.10;99.90
10010;DHT22;5044;48.652;9.250;2022-10-17T00:16:08;14.10;99.90
10010;DHT22;5044;48.652;9.250;2022-10-17T00:18:36;14.00;99.90
10010;DHT22;5044;48.652;9.250;2022-10-17T00:21:03;14.00;99.90
10010;DHT22;5044;48.652;9.250;2022-10-17T00:23:32;14.00;99.90
10010;DHT22;5044;48.652;9.250;2022-10-17T00:26:00;14.00;99.90
10010;DHT22;5044;48.652;9.250;2022-10-17T00:28:27;14.00;99.90
10010;DHT22;5044;48.652;9.250;2022-10-17T00:30:57;13.80;99.90
10010;DHT22;5044;48.652;9.250;2022-10-17T00:33:24;13.80;99.90
10010;DHT22;5044;48.652;9.250;2022-10-17T00:35:51;13.80;99.90
10010;DHT22;5044;48.652;9.250;2022-10-17T00:38:27;13.80;99.90
10010;DHT22;5044;48.652;9.250;2022-10-17T00:40:54;13.70;99.90
10010;DHT22;5044;48.652;9.250;2022-10-17T00:43:21;13.70;99.90
10010;DHT22;5044;48.652;9.250;2022-10-17T00:45:48;13.60;99.90
10010;DHT22;5044;48.652;9.250;2022-10-17T00:48:17;13.50;99.90
10010;DHT22;5044;48.652;9.250;2022-10-17T00:50:47;13.40;99.90
10010;DHT22;5044;48.652;9.250;2022-10-17T00:53:15;13.50;99.90
10010;DHT22;5044;48.652;9.250;2022-10-17T00:55:47;13.40;99.90
10010;DHT22;5044;48.652;9.250;2022-10-17T00:58:15;13.40;99.90
10010;DHT22;5044;48.652;9.250;2022-10-17T01:00:43;13.40;99.90
10010;DHT22;5044;48.652;9.250;2022-10-17T01:03:11;13.40;99.90
10010;DHT22;5044;48.652;9.250;2022-10-17T01:05:40;13.30;99.90
10010;DHT22;5044;48.652;9.250;2022-10-17T01:08:08;13.30;99.90
10010;DHT22;5044;48.652;9.250;2022-10-17T01:10:45;13.20;99.90
10010;DHT22;5044;48.652;9.250;2022-10-17T01:13:22;13.20;99.90
10010;DHT22;5044;48.652;9.250;2022-10-17T01:15:58;13.20;99.90
10010;DHT22;5044;48.652;9.250;2022-10-17T01:18:41;13.30;99.90
10010;DHT22;5044;48.652;9.250;2022-10-17T01:21:25;13.10;99.90
10010;DHT22;5044;48.652;9.250;2022-10-17T01:24:32;13.00;99.90
10010;DHT22;5044;48.652;9.250;2022-10-17T01:27:41;13.00;99.90
10010;DHT22;5044;48.652;9.250;2022-10-17T01:30:55;12.90;99.90
10010;DHT22;5044;48.652;9.250;2022-10-17T01:33:34;12.90;99.90
10010;DHT22;5044;48.652;9.250;2022-10-17T01:36:09;12.90;99.90
10010;DHT22;5044;48.652;9.250;2022-10-17T01:38:43;12.90;99.90
10010;DHT22;5044;48.652;9.250;2022-10-17T01:41:18;12.90;99.90
10010;DHT22;5044;48.652;9.250;2022-10-17T01:43:53;12.90;99.90
10010;DHT22;5044;48.652;9.250;2022-10-17T01:46:26;12.90;99.90
10010;DHT22;5044;48.652;9.250;2022-10-17T01:48:55;12.90;99.90
10010;DHT22;5044;48.652;9.250;2022-10-17T01:51:27;12.80;99.90
10010;DHT22;5044;48.652;9.250;2022-10-17T01:53:59;12.80;99.90
10010;DHT22;5044;48.652;9.250;2022-10-17T01:56:27;12.80;99.90
10010;DHT22;5044;48.652;9.250;2022-10-17T01:58:59;12.80;99.90
10010;DHT22;5044;48.652;9.250;2022-10-17T02:01:33;12.70;99.90
10010;DHT22;5044;48.652;9.250;2022-10-17T02:04:05;12.70;99.90
10010;DHT22;5044;48.652;9.250;2022-10-17T02:06:34;12.70;99.90
10010;DHT22;5044;48.652;9.250;2022-10-17T02:09:01;12.70;99.90
10010;DHT22;5044;48.652;9.250;2022-10-17T02:11:40;12.70;99.90
10010;DHT22;5044;48.652;9.250;2022-10-17T02:14:17;12.70;99.90
10010;DHT22;5044;48.652;9.250;2022-10-17T02:16:55;12.70;99.90
10010;DHT22;5044;48.652;9.250;2022-10-17T02:19:38;12.60;99.90
10010;DHT22;5044;48.652;9.250;2022-10-17T02:22:15;12.60;99.90
10010;DHT22;5044;48.652;9.250;2022-10-17T02:24:48;12.60;99.90
10010;DHT22;5044;48.652;9.250;2022-10-17T02:27:22;12.60;99.90
10010;DHT22;5044;48.652;9.250;2022-10-17T02:29:56;12.60;99.90
10010;DHT22;5044;48.652;9.250;2022-10-17T02:32:33;12.50;99.90
10010;DHT22;5044;48.652;9.250;2022-10-17T02:35:04;12.50;99.90
10010;DHT22;5044;48.652;9.250;2022-10-17T02:37:33;12.50;99.90
10010;DHT22;5044;48.652;9.250;2022-10-17T02:40:02;12.40;99.90
10010;DHT22;5044;48.652;9.250;2022-10-17T02:42:31;12.40;99.90
10010;DHT22;5044;48.652;9.250;2022-10-17T02:44:59;12.40;99.90
10010;DHT22;5044;48.652;9.250;2022-10-17T02:47:36;12.40;99.90
10010;DHT22;5044;48.652;9.250;2022-10-17T02:50:06;12.30;99.90
10010;DHT22;5044;48.652;9.250;2022-10-17T02:52:35;12.30;99.90
10010;DHT22;5044;48.652;9.250;2022-10-17T02:55:09;12.30;99.90
10010;DHT22;5044;48.652;9.250;2022-10-17T02:57:39;12.30;99.90
10010;DHT22;5044;48.652;9.250;2022-10-17T03:00:10;12.30;99.90
10010;DHT22;5044;48.652;9.250;2022-10-17T03:02:41;12.20;99.90
10010;DHT22;5044;48.652;9.250;2022-10-17T03:05:09;12.20;99.90
10010;DHT22;5044;48.652;9.250;2022-10-17T03:07:36;12.20;99.90
10010;DHT22;5044;48.652;9.250;2022-10-17T03:10:04;12.20;99.90
10010;DHT22;5044;48.652;9.250;2022-10-17T03:12:31;12.20;99.90
10010;DHT22;5044;48.652;9.250;2022-10-17T03:14:58;12.20;99.90
10010;DHT22;5044;48.652;9.250;2022-10-17T03:17:26;12.20;99.90
10010;DHT22;5044;48.652;9.250;2022-10-17T03:19:54;12.20;99.90
10010;DHT22;5044;48.652;9.250;2022-10-17T03:22:21;12.10;99.90
10010;DHT22;5044;48.652;9.250;2022-10-17T03:24:48;12.30;99.90
10010;DHT22;5044;48.652;9.250;2022-10-17T03:27:15;12.10;99.90
10010;DHT22;5044;48.652;9.250;2022-10-17T03:29:42;12.10;99.90
10010;DHT22;5044;48.652;9.250;2022-10-17T03:32:09;12.10;99.90
10010;DHT22;5044;48.652;9.250;2022-10-17T03:34:36;12.10;99.90
10010;DHT22;5044;48.652;9.250;2022-10-17T03:37:04;12.10;99.90
10010;DHT22;5044;48.652;9.250;2022-10-17T03:39:31;12.00;99.90
10010;DHT22;5044;48.652;9.250;2022-10-17T03:41:58;12.00;99.90
10010;DHT22;5044;48.652;9.250;2022-10-17T03:44:25;12.00;99.90
10010;DHT22;5044;48.652;9.250;2022-10-17T03:46:52;12.00;99.90
10010;DHT22;5044;48.652;9.250;2022-10-17T03:49:19;12.00;99.90
10010;DHT22;5044;48.652;9.250;2022-10-17T03:51:46;12.00;99.90
10010;DHT22;5044;48.652;9.250;2022-10-17T03:54:15;12.00;99.90
10010;DHT22;5044;48.652;9.250;2022-10-17T03:56:42;12.00;99.90
10010;DHT22;5044;48.652;9.250;2022-10-17T03:59:11;11.90;99.90
10010;DHT22;5044;48.652;9.250;2022-10-17T04:01:39;12.00;99.90
10010;DHT22;5044;48.652;9.250;2022-10-17T04:04:05;12.00;99.90
10010;DHT22;5044;48.652;9.250;2022-10-17T04:06:33;12.00;99.90
10010;DHT22;5044;48.652;9.250;2022-10-17T04:09:00;12.00;99.90
10010;DHT22;5044;48.652;9.250;2022-10-17T04:11:28;12.00;99.90
10010;DHT22;5044;48.652;9.250;2022-10-17T04:13:57;12.00;99.90
10010;DHT22;5044;48.652;9.250;2022-10-17T04:16:25;12.00;99.90
10010;DHT22;5044;48.652;9.250;2022-10-17T04:18:53;12.00;99.90
10010;DHT22;5044;48.652;9.250;2022-10-17T04:21:21;12.00;99.90
10010;DHT22;5044;48.652;9.250;2022-10-17T04:23:52;12.00;99.90
10010;DHT22;5044;48.652;9.250;2022-10-17T04:26:19;12.00;99.90
10010;DHT22;5044;48.652;9.250;2022-10-17T04:28:48;12.00;99.90
10010;DHT22;5044;48.652;9.250;2022-10-17T04:31:15;12.20;99.90
10010;DHT22;5044;48.652;9.250;2022-10-17T04:33:43;12.00;99.90
10010;DHT22;5044;48.652;9.250;2022-10-17T04:36:15;12.00;99.90
10010;DHT22;5044;48.652;9.250;2022-10-17T04:38:42;11.90;99.90
10010;DHT22;5044;48.652;9.250;2022-10-17T04:41:11;11.90;99.90
10010;DHT22;5044;48.652;9.250;2022-10-17T04:43:38;11.90;99.90
10010;DHT22;5044;48.652;9.250;2022-10-17T04:46:09;11.90;99.90
10010;DHT22;5044;48.652;9.250;2022-10-17T04:48:37;11.90;99.90
10010;DHT22;5044;48.652;9.250;2022-10-17T04:51:06;11.90;99.90
10010;DHT22;5044;48.652;9.250;2022-10-17T04:53:35;11.90;99.90
10010;DHT22;5044;48.652;9.250;2022-10-17T04:56:07;11.80;99.90
10010;DHT22;5044;48.652;9.250;2022-10-17T04:58:35;11.80;99.90
10010;DHT22;5044;48.652;9.250;2022-10-17T05:01:04;11.70;99.90
10010;DHT22;5044;48.652;9.250;2022-10-17T05:03:33;11.80;99.90
10010;DHT22;5044;48.652;9.250;2022-10-17T05:06:03;11.80;99.90
10010;DHT22;5044;48.652;9.250;2022-10-17T05:08:31;11.80;99.90
10010;DHT22;5044;48.652;9.250;2022-10-17T05:10:58;11.80;99.90
10010;DHT22;5044;48.652;9.250;2022-10-17T05:13:24;12.00;99.90
10010;DHT22;5044;48.652;9.250;2022-10-17T05:15:51;11.80;99.90
10010;DHT22;5044;48.652;9.250;2022-10-17T05:18:18;11.80;99.90
10010;DHT22;5044;48.652;9.250;2022-10-17T05:20:47;11.80;99.90
10010;DHT22;5044;48.652;9.250;2022-10-17T05:23:15;11.80;99.90
10010;DHT22;5044;48.652;9.250;2022-10-17T05:25:42;11.90;99.90
10010;DHT22;5044;48.652;9.250;2022-10-17T05:28:09;11.80;99.90
10010;DHT22;5044;48.652;9.250;2022-10-17T05:30:36;11.80;99.90
10010;DHT22;5044;48.652;9.250;2022-10-17T05:33:03;11.80;99.90
10010;DHT22;5044;48.652;9.250;2022-10-17T05:35:30;11.70;99.90
10010;DHT22;5044;48.652;9.250;2022-10-17T05:37:59;11.80;99.90
10010;DHT22;5044;48.652;9.250;2022-10-17T05:40:26;11.70;99.90
10010;DHT22;5044;48.652;9.250;2022-10-17T05:42:53;11.70;99.90
10010;DHT22;5044;48.652;9.250;2022-10-17T05:45:20;11.80;99.90
10010;DHT22;5044;48.652;9.250;2022-10-17T05:47:47;11.70;99.90
10010;DHT22;5044;48.652;9.250;2022-10-17T05:50:14;11.60;99.90
10010;DHT22;5044;48.652;9.250;2022-10-17T05:52:41;11.70;99.90
10010;DHT22;5044;48.652;9.250;2022-10-17T05:55:10;11.60;99.90
10010;DHT22;5044;48.652;9.250;2022-10-17T05:57:37;11.60;99.90
10010;DHT22;5044;48.652;9.250;2022-10-17T06:00:05;11.70;99.90
10010;DHT22;5044;48.652;9.250;2022-10-17T06:02:32;11.60;99.90
10010;DHT22;5044;48.652;9.250;2022-10-17T06:04:59;11.60;99.90
10010;DHT22;5044;48.652;9.250;2022-10-17T06:07:26;11.60;99.90
10010;DHT22;5044;48.652;9.250;2022-10-17T06:09:53;11.60;99.90
10010;DHT22;5044;48.652;9.250;2022-10-17T06:12:21;11.60;99.90
10010;DHT22;5044;48.652;9.250;2022-10-17T06:14:48;11.60;99.90
10010;DHT22;5044;48.652;9.250;2022-10-17T06:17:15;11.50;99.90
10010;DHT22;5044;48.652;9.250;2022-10-17T06:19:42;11.60;99.90
10010;DHT22;5044;48.652;9.250;2022-10-17T06:22:10;11.90;99.90
10010;DHT22;5044;48.652;9.250;2022-10-17T06:24:36;11.60;99.90
10010;DHT22;5044;48.652;9.250;2022-10-17T06:27:03;11.60;99.90
10010;DHT22;5044;48.652;9.250;2022-10-17T06:29:32;11.60;99.90
10010;DHT22;5044;48.652;9.250;2022-10-17T06:31:59;11.60;99.90
10010;DHT22;5044;48.652;9.250;2022-10-17T06:34:26;11.60;99.90
10010;DHT22;5044;48.652;9.250;2022-10-17T06:36:53;11.70;99.90
10010;DHT22;5044;48.652;9.250;2022-10-17T06:39:20;11.70;99.90
10010;DHT22;5044;48.652;9.250;2022-10-17T06:41:49;11.70;99.90
10010;DHT22;5044;48.652;9.250;2022-10-17T06:44:16;11.80;99.90
10010;DHT22;5044;48.652;9.250;2022-10-17T06:46:44;11.80;99.90
10010;DHT22;5044;48.652;9.250;2022-10-17T06:49:11;11.90;99.90
10010;DHT22;5044;48.652;9.250;2022-10-17T06:51:38;12.00;99.90
10010;DHT22;5044;48.652;9.250;2022-10-17T06:54:05;12.10;99.90
10010;DHT22;5044;48.652;9.250;2022-10-17T06:56:32;12.20;99.90
10010;DHT22;5044;48.652;9.250;2022-10-17T06:58:59;12.30;99.90
10010;DHT22;5044;48.652;9.250;2022-10-17T07:01:26;12.50;99.90
10010;DHT22;5044;48.652;9.250;2022-10-17T07:03:55;12.50;99.90
10010;DHT22;5044;48.652;9.250;2022-10-17T07:06:22;12.70;99.90
10010;DHT22;5044;48.652;9.250;2022-10-17T07:08:50;12.80;99.90
10010;DHT22;5044;48.652;9.250;2022-10-17T07:11:19;13.00;99.90
10010;DHT22;5044;48.652;9.250;2022-10-17T07:13:47;13.10;99.90
10010;DHT22;5044;48.652;9.250;2022-10-17T07:16:15;13.20;99.90
10010;DHT22;5044;48.652;9.250;2022-10-17T07:18:42;13.30;99.90
10010;DHT22;5044;48.652;9.250;2022-10-17T07:21:12;13.50;99.90
10010;DHT22;5044;48.652;9.250;2022-10-17T07:23:39;13.60;99.90
10010;DHT22;5044;48.652;9.250;2022-10-17T07:26:08;13.70;99.90
10010;DHT22;5044;48.652;9.250;2022-10-17T07:28:38;13.80;99.90
10010;DHT22;5044;48.652;9.250;2022-10-17T07:31:06;14.00;99.90
10010;DHT22;5044;48.652;9.250;2022-10-17T07:33:34;14.10;99.90
10010;DHT22;5044;48.652;9.250;2022-10-17T07:36:02;14.10;99.90
10010;DHT22;5044;48.652;9.250;2022-10-17T07:38:31;14.30;99.90
10010;DHT22;5044;48.652;9.250;2022-10-17T07:40:59;14.40;99.90
10010;DHT22;5044;48.652;9.250;2022-10-17T07:43:27;14.50;99.90
10010;DHT22;5044;48.652;9.250;2022-10-17T07:45:55;14.70;99.90
10010;DHT22;5044;48.652;9.250;2022-10-17T07:48:24;14.80;99.90
10010;DHT22;5044;48.652;9.250;2022-10-17T07:50:52;15.00;99.90
10010;DHT22;5044;48.652;9.250;2022-10-17T07:53:19;15.10;99.90
10010;DHT22;5044;48.652;9.250;2022-10-17T07:55:51;15.20;99.90
10010;DHT22;5044;48.652;9.250;2022-10-17T07:58:18;15.30;99.90
10010;DHT22;5044;48.652;9.250;2022-10-17T08:00:45;15.40;99.90
10010;DHT22;5044;48.652;9.250;2022-10-17T08:03:14;15.40;99.90
10010;DHT22;5044;48.652;9.250;2022-10-17T08:05:42;15.60;99.90
10010;DHT22;5044;48.652;9.250;2022-10-17T08:08:09;15.80;99.90
10010;DHT22;5044;48.652;9.250;2022-10-17T08:10:36;16.00;99.90
10010;DHT22;5044;48.652;9.250;2022-10-17T08:13:04;16.00;99.90
10010;DHT22;5044;48.652;9.250;2022-10-17T08:15:31;16.10;99.90
10010;DHT22;5044;48.652;9.250;2022-10-17T08:17:58;16.20;99.90
10010;DHT22;5044;48.652;9.250;2022-10-17T08:20:25;16.20;99.90
10010;DHT22;5044;48.652;9.250;2022-10-17T08:22:52;16.30;99.90
10010;DHT22;5044;48.652;9.250;2022-10-17T08:25:20;16.30;99.90
10010;DHT22;5044;48.652;9.250;2022-10-17T08:27:47;16.40;99.90
10010;DHT22;5044;48.652;9.250;2022-10-17T08:32:49;16.70;99.90
10010;DHT22;5044;48.652;9.250;2022-10-17T08:35:16;16.80;99.90
10010;DHT22;5044;48.652;9.250;2022-10-17T08:37:47;16.90;99.90
10010;DHT22;5044;48.652;9.250;2022-10-17T08:40:18;17.00;99.90
10010;DHT22;5044;48.652;9.250;2022-10-17T08:43:11;17.00;99.90
10010;DHT22;5044;48.652;9.250;2022-10-17T08:45:46;17.00;99.90
10010;DHT22;5044;48.652;9.250;2022-10-17T08:48:18;17.10;99.90
10010;DHT22;5044;48.652;9.250;2022-10-17T08:50:50;17.30;99.90
10010;DHT22;5044;48.652;9.250;2022-10-17T08:53:24;17.40;99.90
10010;DHT22;5044;48.652;9.250;2022-10-17T08:55:54;17.50;99.90
10010;DHT22;5044;48.652;9.250;2022-10-17T09:03:37;18.00;99.90
10010;DHT22;5044;48.652;9.250;2022-10-17T09:06:14;18.10;99.90
10010;DHT22;5044;48.652;9.250;2022-10-17T09:08:53;18.20;99.90
10010;DHT22;5044;48.652;9.250;2022-10-17T09:11:36;18.40;99.90
10010;DHT22;5044;48.652;9.250;2022-10-17T09:14:26;18.50;99.90
10010;DHT22;5044;48.652;9.250;2022-10-17T09:17:05;18.60;99.90
10010;DHT22;5044;48.652;9.250;2022-10-17T09:19:36;18.70;99.90
10010;DHT22;5044;48.652;9.250;2022-10-17T09:22:08;19.10;99.90
10010;DHT22;5044;48.652;9.250;2022-10-17T09:24:40;19.10;99.90
10010;DHT22;5044;48.652;9.250;2022-10-17T09:27:17;19.10;99.90
10010;DHT22;5044;48.652;9.250;2022-10-17T09:29:48;19.20;99.90
10010;DHT22;5044;48.652;9.250;2022-10-17T09:32:18;19.40;99.90
10010;DHT22;5044;48.652;9.250;2022-10-17T09:34:48;19.30;99.90
10010;DHT22;5044;48.652;9.250;2022-10-17T09:37:17;19.50;99.90
10010;DHT22;5044;48.652;9.250;2022-10-17T09:39:45;19.70;99.90
10010;DHT22;5044;48.652;9.250;2022-10-17T09:42:13;19.70;99.90
10010;DHT22;5044;48.652;9.250;2022-10-17T09:44:48;19.80;99.90
10010;DHT22;5044;48.652;9.250;2022-10-17T09:47:24;19.90;99.90
10010;DHT22;5044;48.652;9.250;2022-10-17T09:49:53;20.00;99.90
10010;DHT22;5044;48.652;9.250;2022-10-17T09:52:26;19.90;99.90
10010;DHT22;5044;48.652;9.250;2022-10-17T09:54:58;20.10;99.90
10010;DHT22;5044;48.652;9.250;2022-10-17T09:57:26;20.20;99.90
10010;DHT22;5044;48.652;9.250;2022-10-17T09:59:58;20.40;99.90
10010;DHT22;5044;48.652;9.250;2022-10-17T10:02:27;20.40;99.90
10010;DHT22;5044;48.652;9.250;2022-10-17T10:04:58;20.40;99.90
10010;DHT22;5044;48.652;9.250;2022-10-17T10:07:27;20.50;99.90
10010;DHT22;5044;48.652;9.250;2022-10-17T10:09:56;20.50;99.90
10010;DHT22;5044;48.652;9.250;2022-10-17T10:12:25;20.50;99.90
10010;DHT22;5044;48.652;9.250;2022-10-17T10:14:53;20.60;99.90
10010;DHT22;5044;48.652;9.250;2022-10-17T10:17:43;20.70;99.90
10010;DHT22;5044;48.652;9.250;2022-10-17T10:20:29;20.80;99.90
10010;DHT22;5044;48.652;9.250;2022-10-17T10:23:11;20.90;99.90
10010;DHT22;5044;48.652;9.250;2022-10-17T10:25:48;21.00;99.90
10010;DHT22;5044;48.652;9.250;2022-10-17T10:28:17;21.10;99.90
10010;DHT22;5044;48.652;9.250;2022-10-17T10:30:47;21.10;99.90
10010;DHT22;5044;48.652;9.250;2022-10-17T10:33:17;21.10;99.90
10010;DHT22;5044;48.652;9.250;2022-10-17T10:35:52;21.20;99.90
10010;DHT22;5044;48.652;9.250;2022-10-17T10:38:20;21.30;99.90
10010;DHT22;5044;48.652;9.250;2022-10-17T10:40:49;21.40;99.90
10010;DHT22;5044;48.652;9.250;2022-10-17T10:43:23;21.50;99.90
10010;DHT22;5044;48.652;9.250;2022-10-17T10:45:52;21.50;99.90
10010;DHT22;5044;48.652;9.250;2022-10-17T10:48:21;21.60;99.90
10010;DHT22;5044;48.652;9.250;2022-10-17T10:50:51;21.60;99.90
10010;DHT22;5044;48.652;9.250;2022-10-17T10:53:29;21.60;99.90
10010;DHT22;5044;48.652;9.250;2022-10-17T10:56:00;21.60;99.90
10010;DHT22;5044;48.652;9.250;2022-10-17T10:58:36;21.70;99.90
10010;DHT22;5044;48.652;9.250;2022-10-17T11:01:10;21.90;99.90
10010;DHT22;5044;48.652;9.250;2022-10-17T11:03:51;21.90;99.90
10010;DHT22;5044;48.652;9.250;2022-10-17T11:06:26;22.10;99.90
10010;DHT22;5044;48.652;9.250;2022-10-17T11:09:09;22.30;97.00
10010;DHT22;5044;48.652;9.250;2022-10-17T11:11:41;22.30;99.90
10010;DHT22;5044;48.652;9.250;2022-10-17T11:14:14;22.30;95.70
10010;DHT22;5044;48.652;9.250;2022-10-17T11:16:46;22.40;99.40
10010;DHT22;5044;48.652;9.250;2022-10-17T11:19:20;22.40;99.90
10010;DHT22;5044;48.652;9.250;2022-10-17T11:22:00;22.40;97.20
10010;DHT22;5044;48.652;9.250;2022-10-17T11:24:34;22.60;94.70
10010;DHT22;5044;48.652;9.250;2022-10-17T11:27:05;22.70;95.10
10010;DHT22;5044;48.652;9.250;2022-10-17T11:29:33;22.80;96.40
10010;DHT22;5044;48.652;9.250;2022-10-17T11:32:06;23.10;97.40
10010;DHT22;5044;48.652;9.250;2022-10-17T11:34:38;23.20;96.70
10010;DHT22;5044;48.652;9.250;2022-10-17T11:37:13;23.30;97.30
10010;DHT22;5044;48.652;9.250;2022-10-17T11:39:43;23.40;97.10
10010;DHT22;5044;48.652;9.250;2022-10-17T11:42:16;23.40;95.30
10010;DHT22;5044;48.652;9.250;2022-10-17T11:44:43;23.60;92.70
10010;DHT22;5044;48.652;9.250;2022-10-17T11:47:21;23.70;91.00
10010;DHT22;5044;48.652;9.250;2022-10-17T11:49:51;23.90;87.00
10010;DHT22;5044;48.652;9.250;2022-10-17T11:52:29;24.10;92.90
10010;DHT22;5044;48.652;9.250;2022-10-17T11:55:01;24.20;91.30
10010;DHT22;5044;48.652;9.250;2022-10-17T11:57:39;24.30;90.00
10010;DHT22;5044;48.652;9.250;2022-10-17T12:00:21;24.50;84.60
10010;DHT22;5044;48.652;9.250;2022-10-17T12:02:56;24.50;82.50
10010;DHT22;5044;48.652;9.250;2022-10-17T12:05:30;24.60;76.70
10010;DHT22;5044;48.652;9.250;2022-10-17T12:08:04;24.50;68.70
10010;DHT22;5044;48.652;9.250;2022-10-17T12:10:42;24.60;70.80
10010;DHT22;5044;48.652;9.250;2022-10-17T12:16:41;24.60;70.20
10010;DHT22;5044;48.652;9.250;2022-10-17T12:19:30;24.70;67.20
10010;DHT22;5044;48.652;9.250;2022-10-17T12:22:17;24.80;70.10
10010;DHT22;5044;48.652;9.250;2022-10-17T12:24:54;24.90;69.30
10010;DHT22;5044;48.652;9.250;2022-10-17T12:27:33;24.90;65.60
10010;DHT22;5044;48.652;9.250;2022-10-17T12:30:04;24.90;68.40
10010;DHT22;5044;48.652;9.250;2022-10-17T12:32:34;24.90;63.30
10010;DHT22;5044;48.652;9.250;2022-10-17T12:35:01;24.90;64.60
10010;DHT22;5044;48.652;9.250;2022-10-17T12:38:02;24.80;64.60
10010;DHT22;5044;48.652;9.250;2022-10-17T12:43:47;25.00;67.90
10010;DHT22;5044;48.652;9.250;2022-10-17T12:46:45;25.00;63.60
10010;DHT22;5044;48.652;9.250;2022-10-17T12:52:26;25.00;71.10
10010;DHT22;5044;48.652;9.250;2022-10-17T12:55:14;25.10;67.20
10010;DHT22;5044;48.652;9.250;2022-10-17T12:57:52;25.20;68.40
10010;DHT22;5044;48.652;9.250;2022-10-17T13:00:28;25.40;70.90
10010;DHT22;5044;48.652;9.250;2022-10-17T13:03:04;25.40;72.60
10010;DHT22;5044;48.652;9.250;2022-10-17T13:05:34;25.40;69.20
10010;DHT22;5044;48.652;9.250;2022-10-17T13:08:04;25.50;70.50
10010;DHT22;5044;48.652;9.250;2022-10-17T13:10:35;25.50;71.10
10010;DHT22;5044;48.652;9.250;2022-10-17T13:13:09;25.60;68.40
10010;DHT22;5044;48.652;9.250;2022-10-17T13:15:39;25.50;63.00
10010;DHT22;5044;48.652;9.250;2022-10-17T13:18:17;25.50;68.40
10010;DHT22;5044;48.652;9.250;2022-10-17T13:20:54;25.40;61.70
10010;DHT22;5044;48.652;9.250;2022-10-17T13:23:22;25.30;61.90
10010;DHT22;5044;48.652;9.250;2022-10-17T13:26:02;25.40;61.30
10010;DHT22;5044;48.652;9.250;2022-10-17T13:28:29;25.40;61.60
10010;DHT22;5044;48.652;9.250;2022-10-17T13:30:58;25.30;60.50
10010;DHT22;5044;48.652;9.250;2022-10-17T13:33:33;25.40;66.80
10010;DHT22;5044;48.652;9.250;2022-10-17T13:36:05;25.40;63.60
10010;DHT22;5044;48.652;9.250;2022-10-17T13:38:34;25.40;66.70
10010;DHT22;5044;48.652;9.250;2022-10-17T13:41:02;25.40;62.70
10010;DHT22;5044;48.652;9.250;2022-10-17T13:43:30;25.50;68.90
10010;DHT22;5044;48.652;9.250;2022-10-17T13:46:00;25.40;61.60
10010;DHT22;5044;48.652;9.250;2022-10-17T13:48:31;25.30;59.30
10010;DHT22;5044;48.652;9.250;2022-10-17T13:51:00;25.50;78.70
10010;DHT22;5044;48.652;9.250;2022-10-17T13:53:30;25.40;61.90
10010;DHT22;5044;48.652;9.250;2022-10-17T13:56:01;25.50;62.40
10010;DHT22;5044;48.652;9.250;2022-10-17T13:58:30;25.50;65.00
10010;DHT22;5044;48.652;9.250;2022-10-17T14:01:01;25.60;68.20
10010;DHT22;5044;48.652;9.250;2022-10-17T14:03:29;25.50;63.20
10010;DHT22;5044;48.652;9.250;2022-10-17T14:06:06;25.60;62.90
10010;DHT22;5044;48.652;9.250;2022-10-17T14:08:36;25.60;62.30
10010;DHT22;5044;48.652;9.250;2022-10-17T14:11:13;25.50;63.50
10010;DHT22;5044;48.652;9.250;2022-10-17T14:13:41;25.50;66.70
10010;DHT22;5044;48.652;9.250;2022-10-17T14:16:10;25.50;61.30
10010;DHT22;5044;48.652;9.250;2022-10-17T14:18:37;25.60;70.10
10010;DHT22;5044;48.652;9.250;2022-10-17T14:21:05;25.50;61.70
10010;DHT22;5044;48.652;9.250;2022-10-17T14:23:36;25.40;65.70
10010;DHT22;5044;48.652;9.250;2022-10-17T14:26:10;25.40;66.10
10010;DHT22;5044;48.652;9.250;2022-10-17T14:28:37;25.20;61.20
10010;DHT22;5044;48.652;9.250;2022-10-17T14:31:24;25.20;67.50
10010;DHT22;5044;48.652;9.250;2022-10-17T14:33:54;25.20;64.90
10010;DHT22;5044;48.652;9.250;2022-10-17T14:36:33;25.10;69.10
10010;DHT22;5044;48.652;9.250;2022-10-17T14:39:02;24.90;61.60
10010;DHT22;5044;48.652;9.250;2022-10-17T14:41:31;24.90;63.30
10010;DHT22;5044;48.652;9.250;2022-10-17T14:44:02;24.80;66.20
10010;DHT22;5044;48.652;9.250;2022-10-17T14:46:33;24.70;61.90
10010;DHT22;5044;48.652;9.250;2022-10-17T14:49:04;24.70;68.60
10010;DHT22;5044;48.652;9.250;2022-10-17T14:51:32;24.70;81.60
10010;DHT22;5044;48.652;9.250;2022-10-17T14:54:02;24.80;89.10
10010;DHT22;5044;48.652;9.250;2022-10-17T14:56:34;24.60;89.20
10010;DHT22;5044;48.652;9.250;2022-10-17T14:59:02;24.60;90.70
10010;DHT22;5044;48.652;9.250;2022-10-17T15:01:32;24.40;91.00
10010;DHT22;5044;48.652;9.250;2022-10-17T15:03:59;24.40;92.60
10010;DHT22;5044;48.652;9.250;2022-10-17T15:06:28;24.30;92.70
10010;DHT22;5044;48.652;9.250;2022-10-17T15:08:56;24.20;90.70
10010;DHT22;5044;48.652;9.250;2022-10-17T15:11:23;24.00;91.70
10010;DHT22;5044;48.652;9.250;2022-10-17T15:13:51;24.00;92.00
10010;DHT22;5044;48.652;9.250;2022-10-17T15:16:20;24.00;92.70
10010;DHT22;5044;48.652;9.250;2022-10-17T15:18:53;24.00;92.80
10010;DHT22;5044;48.652;9.250;2022-10-17T15:21:22;23.90;93.80
10010;DHT22;5044;48.652;9.250;2022-10-17T15:23:50;23.80;92.80
10010;DHT22;5044;48.652;9.250;2022-10-17T15:26:19;23.70;93.00
10010;DHT22;5044;48.652;9.250;2022-10-17T15:28:47;23.60;93.90
10010;DHT22;5044;48.652;9.250;2022-10-17T15:31:16;23.60;94.60
10010;DHT22;5044;48.652;9.250;2022-10-17T15:33:48;23.60;94.10
10010;DHT22;5044;48.652;9.250;2022-10-17T15:36:20;23.50;95.30
10010;DHT22;5044;48.652;9.250;2022-10-17T15:38:48;23.40;95.70
10010;DHT22;5044;48.652;9.250;2022-10-17T15:41:16;23.40;96.20
10010;DHT22;5044;48.652;9.250;2022-10-17T15:43:43;23.40;96.40
10010;DHT22;5044;48.652;9.250;2022-10-17T15:46:14;23.30;94.60
10010;DHT22;5044;48.652;9.250;2022-10-17T15:48:42;23.30;96.00
10010;DHT22;5044;48.652;9.250;2022-10-17T15:51:11;23.10;92.90
10010;DHT22;5044;48.652;9.250;2022-10-17T15:53:38;23.00;92.00
10010;DHT22;5044;48.652;9.250;2022-10-17T15:56:05;22.90;93.30
10010;DHT22;5044;48.652;9.250;2022-10-17T15:58:35;22.90;95.10
10010;DHT22;5044;48.652;9.250;2022-10-17T16:01:04;22.70;95.70
10010;DHT22;5044;48.652;9.250;2022-10-17T16:03:32;22.80;96.10
10010;DHT22;5044;48.652;9.250;2022-10-17T16:05:59;22.70;97.80
10010;DHT22;5044;48.652;9.250;2022-10-17T16:08:27;22.70;98.00
10010;DHT22;5044;48.652;9.250;2022-10-17T16:10:55;22.50;92.20
10010;DHT22;5044;48.652;9.250;2022-10-17T16:13:23;22.30;94.30
10010;DHT22;5044;48.652;9.250;2022-10-17T16:15:50;22.30;95.20
10010;DHT22;5044;48.652;9.250;2022-10-17T16:18:17;22.10;94.60
10010;DHT22;5044;48.652;9.250;2022-10-17T16:20:45;22.00;96.80
10010;DHT22;5044;48.652;9.250;2022-10-17T16:23:13;21.90;96.30
10010;DHT22;5044;48.652;9.250;2022-10-17T16:25:41;21.90;99.60